< < Back
Terminal Aerodrome Forecast


Current Version              Previous Versions:   1  2  3  4  5  6  7  8  9  

Terminal Aerodrome Forecast

737
FTUS42 KCHS 210500
TAFSAV
TAF
KSAV 210535Z 2106/2206 00000KT P6SM VCSH BKN050
     FM211000 31006KT P6SM SKC
     FM211600 28008KT P6SM SKC
     FM220000 VRB03KT P6SM SKC=



Latest METAR

242
SAUS80 KWBC 220600 RRB
MTRSAV
METAR KSAV 220553Z AUTO 29003KT 10SM CLR 16/12 A2996 RMK AO2 SLP143
T01560117 10211 20150 58002 TSNO


USA.gov is the U.S. government's official web portal to all federal, state and local government web resources and services.